sensor_id;sensor_type;location;lat;lon;timestamp;pressure;altitude;pressure_sealevel;temperature;humidity
77263;BME280;66373;52.334;4.806;2023-05-15T00:01:57;101562.50;;;22.47;47.91
77263;BME280;66373;52.334;4.806;2023-05-15T00:04:25;101563.41;;;22.46;48.08
77263;BME280;66373;52.334;4.806;2023-05-15T00:06:52;101562.59;;;22.44;47.76
77263;BME280;66373;52.334;4.806;2023-05-15T00:09:19;101553.88;;;22.44;47.95
77263;BME280;66373;52.334;4.806;2023-05-15T00:11:46;101530.59;;;22.33;47.76
77263;BME280;66373;52.334;4.806;2023-05-15T00:14:14;101515.03;;;22.27;48.08
77263;BME280;66373;52.334;4.806;2023-05-15T00:16:41;101538.19;;;22.42;48.13
77263;BME280;66373;52.334;4.806;2023-05-15T00:19:08;101537.38;;;22.40;47.79
77263;BME280;66373;52.334;4.806;2023-05-15T00:21:36;101539.13;;;22.40;48.10
77263;BME280;66373;52.334;4.806;2023-05-15T00:24:03;101529.53;;;22.39;48.18
77263;BME280;66373;52.334;4.806;2023-05-15T00:26:30;101533.09;;;22.36;47.99
77263;BME280;66373;52.334;4.806;2023-05-15T00:28:57;101500.41;;;22.18;48.05
77263;BME280;66373;52.334;4.806;2023-05-15T00:31:26;101527.16;;;22.31;47.71
77263;BME280;66373;52.334;4.806;2023-05-15T00:33:53;101526.22;;;22.33;47.79
77263;BME280;66373;52.334;4.806;2023-05-15T00:36:20;101534.94;;;22.34;48.12
77263;BME280;66373;52.334;4.806;2023-05-15T00:38:49;101527.13;;;22.32;48.30
77263;BME280;66373;52.334;4.806;2023-05-15T00:41:17;101529.75;;;22.32;47.93
77263;BME280;66373;52.334;4.806;2023-05-15T00:43:48;101515.19;;;22.21;48.29
77263;BME280;66373;52.334;4.806;2023-05-15T00:46:17;101526.28;;;22.30;47.86
77263;BME280;66373;52.334;4.806;2023-05-15T00:48:47;101524.56;;;22.29;48.06
77263;BME280;66373;52.334;4.806;2023-05-15T00:51:16;101517.63;;;22.28;48.08
77263;BME280;66373;52.334;4.806;2023-05-15T00:53:43;101508.03;;;22.27;48.00
77263;BME280;66373;52.334;4.806;2023-05-15T00:56:10;101508.06;;;22.26;48.12
77263;BME280;66373;52.334;4.806;2023-05-15T00:58:38;101450.56;;;21.89;47.98
77263;BME280;66373;52.334;4.806;2023-05-15T01:01:05;101510.75;;;22.24;48.10
77263;BME280;66373;52.334;4.806;2023-05-15T01:03:32;101520.44;;;22.21;47.89
77263;BME280;66373;52.334;4.806;2023-05-15T01:06:01;101523.03;;;22.22;47.91
77263;BME280;66373;52.334;4.806;2023-05-15T01:08:36;101520.44;;;22.21;48.02
77263;BME280;66373;52.334;4.806;2023-05-15T01:11:07;101530.94;;;22.21;47.91
77263;BME280;66373;52.334;4.806;2023-05-15T01:13:34;101513.47;;;22.20;48.11
77263;BME280;66373;52.334;4.806;2023-05-15T01:16:01;101510.91;;;22.18;48.17
77263;BME280;66373;52.334;4.806;2023-05-15T01:18:28;101505.84;;;22.11;48.25
77263;BME280;66373;52.334;4.806;2023-05-15T01:21:24;101508.31;;;22.17;47.91
77263;BME280;66373;52.334;4.806;2023-05-15T01:24:06;101514.50;;;22.14;48.03
77263;BME280;66373;52.334;4.806;2023-05-15T01:27:09;101487.84;;;21.98;48.36
77263;BME280;66373;52.334;4.806;2023-05-15T01:29:41;101509.31;;;22.13;48.17
77263;BME280;66373;52.334;4.806;2023-05-15T01:32:14;101515.44;;;22.12;48.22
77263;BME280;66373;52.334;4.806;2023-05-15T01:34:47;101508.47;;;22.11;48.36
77263;BME280;66373;52.334;4.806;2023-05-15T01:37:21;101512.00;;;22.10;48.22
77263;BME280;66373;52.334;4.806;2023-05-15T01:39:53;101510.41;;;22.06;48.23
77263;BME280;66373;52.334;4.806;2023-05-15T01:42:28;101479.41;;;21.87;48.25
77263;BME280;66373;52.334;4.806;2023-05-15T01:45:02;101475.88;;;21.88;48.08
77263;BME280;66373;52.334;4.806;2023-05-15T01:47:34;101494.84;;;21.98;48.08
77263;BME280;66373;52.334;4.806;2023-05-15T01:50:05;101491.31;;;22.00;48.24
77263;BME280;66373;52.334;4.806;2023-05-15T01:52:34;101492.09;;;22.04;48.20
77263;BME280;66373;52.334;4.806;2023-05-15T01:55:03;101495.63;;;22.03;48.12
77263;BME280;66373;52.334;4.806;2023-05-15T01:57:35;101499.13;;;22.02;48.19
77263;BME280;66373;52.334;4.806;2023-05-15T02:00:04;101480.19;;;21.91;48.31
77263;BME280;66373;52.334;4.806;2023-05-15T02:02:39;101491.44;;;21.94;48.33
77263;BME280;66373;52.334;4.806;2023-05-15T02:05:08;101498.31;;;21.98;48.14
77263;BME280;66373;52.334;4.806;2023-05-15T02:07:36;101498.31;;;21.98;48.29
77263;BME280;66373;52.334;4.806;2023-05-15T02:10:05;101482.91;;;21.86;48.22
77263;BME280;66373;52.334;4.806;2023-05-15T02:12:33;101503.59;;;21.97;48.60
77263;BME280;66373;52.334;4.806;2023-05-15T02:15:02;101454.69;;;21.65;48.41
77263;BME280;66373;52.334;4.806;2023-05-15T02:17:29;101508.03;;;21.95;48.37
77263;BME280;66373;52.334;4.806;2023-05-15T02:19:57;101439.31;;;21.53;48.41
77263;BME280;66373;52.334;4.806;2023-05-15T02:22:24;101505.44;;;21.93;48.53
77263;BME280;66373;52.334;4.806;2023-05-15T02:24:51;101508.97;;;21.92;48.46
77263;BME280;66373;52.334;4.806;2023-05-15T02:27:21;101497.66;;;21.90;48.63
77263;BME280;66373;52.334;4.806;2023-05-15T02:30:02;101495.91;;;21.91;48.37
77263;BME280;66373;52.334;4.806;2023-05-15T02:32:38;101477.88;;;21.80;48.81
77263;BME280;66373;52.334;4.806;2023-05-15T02:35:19;101496.84;;;21.88;48.57
77263;BME280;66373;52.334;4.806;2023-05-15T02:37:51;101490.75;;;21.88;48.43
77263;BME280;66373;52.334;4.806;2023-05-15T02:40:19;101486.44;;;21.85;48.51
77263;BME280;66373;52.334;4.806;2023-05-15T02:42:51;101489.91;;;21.86;48.79
77263;BME280;66373;52.334;4.806;2023-05-15T02:45:21;101491.69;;;21.85;48.72
77263;BME280;66373;52.334;4.806;2023-05-15T02:47:50;101486.44;;;21.85;48.82
77263;BME280;66373;52.334;4.806;2023-05-15T02:50:18;101450.28;;;21.67;48.67
77263;BME280;66373;52.334;4.806;2023-05-15T02:52:45;101480.38;;;21.83;48.70
77263;BME280;66373;52.334;4.806;2023-05-15T02:55:12;101474.34;;;21.81;48.79
77263;BME280;66373;52.334;4.806;2023-05-15T02:57:40;101443.31;;;21.66;48.68
77263;BME280;66373;52.334;4.806;2023-05-15T03:00:08;101461.38;;;21.77;48.68
77263;BME280;66373;52.334;4.806;2023-05-15T03:02:38;101467.47;;;21.77;48.79
77263;BME280;66373;52.334;4.806;2023-05-15T03:05:06;101407.25;;;21.45;48.69
77263;BME280;66373;52.334;4.806;2023-05-15T03:07:35;101472.72;;;21.77;48.84
77263;BME280;66373;52.334;4.806;2023-05-15T03:10:02;101477.09;;;21.77;48.55
77263;BME280;66373;52.334;4.806;2023-05-15T03:12:30;101458.09;;;21.68;48.55
77263;BME280;66373;52.334;4.806;2023-05-15T03:14:57;101470.13;;;21.76;48.85
77263;BME280;66373;52.334;4.806;2023-05-15T03:17:24;101466.72;;;21.72;48.87
77263;BME280;66373;52.334;4.806;2023-05-15T03:19:53;101476.31;;;21.73;48.51
77263;BME280;66373;52.334;4.806;2023-05-15T03:22:20;101476.31;;;21.73;48.97
77263;BME280;66373;52.334;4.806;2023-05-15T03:24:48;101478.09;;;21.71;48.67
77263;BME280;66373;52.334;4.806;2023-05-15T03:27:15;101483.34;;;21.71;48.83
77263;BME280;66373;52.334;4.806;2023-05-15T03:29:42;101482.63;;;21.64;48.78
77263;BME280;66373;52.334;4.806;2023-05-15T03:32:10;101460.22;;;21.54;48.91
77263;BME280;66373;52.334;4.806;2023-05-15T03:34:37;101484.28;;;21.68;48.90
77263;BME280;66373;52.334;4.806;2023-05-15T03:37:05;101467.00;;;21.61;48.56
77263;BME280;66373;52.334;4.806;2023-05-15T03:39:33;101481.69;;;21.67;48.65
77263;BME280;66373;52.334;4.806;2023-05-15T03:42:00;101477.41;;;21.64;48.96
77263;BME280;66373;52.334;4.806;2023-05-15T03:44:27;101465.47;;;21.54;48.88
77263;BME280;66373;52.334;4.806;2023-05-15T03:46:56;101483.50;;;21.65;48.66
77263;BME280;66373;52.334;4.806;2023-05-15T03:49:25;101487.00;;;21.64;49.05
77263;BME280;66373;52.334;4.806;2023-05-15T03:51:52;101411.50;;;21.13;48.80
77263;BME280;66373;52.334;4.806;2023-05-15T03:54:21;101491.41;;;21.62;48.74
77263;BME280;66373;52.334;4.806;2023-05-15T03:56:52;101480.19;;;21.57;48.97
77263;BME280;66373;52.334;4.806;2023-05-15T03:59:19;101487.09;;;21.61;49.03
77263;BME280;66373;52.334;4.806;2023-05-15T04:01:46;101485.38;;;21.60;48.92
77263;BME280;66373;52.334;4.806;2023-05-15T04:04:13;101469.84;;;21.54;48.86
77263;BME280;66373;52.334;4.806;2023-05-15T04:06:42;101457.81;;;21.47;49.09
77263;BME280;66373;52.334;4.806;2023-05-15T04:09:10;101471.56;;;21.55;48.97
77263;BME280;66373;52.334;4.806;2023-05-15T04:11:38;101480.19;;;21.57;48.82
77263;BME280;66373;52.334;4.806;2023-05-15T04:14:05;101468.03;;;21.56;49.04
77263;BME280;66373;52.334;4.806;2023-05-15T04:16:32;101470.66;;;21.56;48.87
77263;BME280;66373;52.334;4.806;2023-05-15T04:18:59;101468.94;;;21.55;48.98
77263;BME280;66373;52.334;4.806;2023-05-15T04:21:26;101478.56;;;21.54;49.11
77263;BME280;66373;52.334;4.806;2023-05-15T04:23:53;101470.75;;;21.53;48.96
77263;BME280;66373;52.334;4.806;2023-05-15T04:26:20;101468.13;;;21.53;48.69
77263;BME280;66373;52.334;4.806;2023-05-15T04:28:49;101472.50;;;21.52;48.90
77263;BME280;66373;52.334;4.806;2023-05-15T04:31:16;101470.00;;;21.48;48.75
77263;BME280;66373;52.334;4.806;2023-05-15T04:33:43;101435.63;;;21.27;49.29
77263;BME280;66373;52.334;4.806;2023-05-15T04:36:10;101476.88;;;21.52;49.20
77263;BME280;66373;52.334;4.806;2023-05-15T04:38:38;101460.56;;;21.41;48.77
77263;BME280;66373;52.334;4.806;2023-05-15T04:41:04;101478.66;;;21.50;48.73
77263;BME280;66373;52.334;4.806;2023-05-15T04:43:32;101476.94;;;21.49;49.01
77263;BME280;66373;52.334;4.806;2023-05-15T04:46:04;101482.19;;;21.49;49.14
77263;BME280;66373;52.334;4.806;2023-05-15T04:48:31;101474.31;;;21.49;49.07
77263;BME280;66373;52.334;4.806;2023-05-15T04:50:58;101413.38;;;21.08;48.83
77263;BME280;66373;52.334;4.806;2023-05-15T04:53:25;101473.50;;;21.47;48.82
77263;BME280;66373;52.334;4.806;2023-05-15T04:55:52;101468.28;;;21.47;49.10
77263;BME280;66373;52.334;4.806;2023-05-15T04:58:20;101470.88;;;21.47;48.87
77263;BME280;66373;52.334;4.806;2023-05-15T05:00:47;101460.53;;;21.42;48.99
77263;BME280;66373;52.334;4.806;2023-05-15T05:03:15;101464.91;;;21.42;49.21
77263;BME280;66373;52.334;4.806;2023-05-15T05:05:42;101465.84;;;21.39;49.20
77263;BME280;66373;52.334;4.806;2023-05-15T05:08:12;101478.81;;;21.44;49.03
77263;BME280;66373;52.334;4.806;2023-05-15T05:10:39;101461.56;;;21.35;48.88
77263;BME280;66373;52.334;4.806;2023-05-15T05:13:10;101418.59;;;21.08;49.26
77263;BME280;66373;52.334;4.806;2023-05-15T05:15:37;101471.00;;;21.42;49.36
77263;BME280;66373;52.334;4.806;2023-05-15T05:18:04;101465.84;;;21.39;49.37
77263;BME280;66373;52.334;4.806;2023-05-15T05:20:36;101432.28;;;21.19;49.74
77263;BME280;66373;52.334;4.806;2023-05-15T05:23:03;101456.47;;;21.30;49.50
77263;BME280;66373;52.334;4.806;2023-05-15T05:25:30;101474.63;;;21.37;49.48
77263;BME280;66373;52.334;4.806;2023-05-15T05:27:57;101471.06;;;21.39;49.62
77263;BME280;66373;52.334;4.806;2023-05-15T05:30:24;101457.38;;;21.29;49.52
77263;BME280;66373;52.334;4.806;2023-05-15T05:32:51;101465.91;;;21.36;49.50
77263;BME280;66373;52.334;4.806;2023-05-15T05:35:18;101475.44;;;21.39;49.39
77263;BME280;66373;52.334;4.806;2023-05-15T05:37:48;101471.06;;;21.39;49.42
77263;BME280;66373;52.334;4.806;2023-05-15T05:40:15;101463.31;;;21.34;49.34
77263;BME280;66373;52.334;4.806;2023-05-15T05:42:43;101475.44;;;21.39;49.56
77263;BME280;66373;52.334;4.806;2023-05-15T05:45:13;101481.53;;;21.39;49.36
77263;BME280;66373;52.334;4.806;2023-05-15T05:47:43;101474.59;;;21.38;49.45
77263;BME280;66373;52.334;4.806;2023-05-15T05:50:10;101473.72;;;21.38;49.63
77263;BME280;66373;52.334;4.806;2023-05-15T05:52:37;101469.38;;;21.37;49.68
77263;BME280;66373;52.334;4.806;2023-05-15T05:55:06;101473.72;;;21.38;49.70
77263;BME280;66373;52.334;4.806;2023-05-15T05:57:33;101454.00;;;21.24;49.69
77263;BME280;66373;52.334;4.806;2023-05-15T06:00:00;101463.28;;;21.36;49.63
77263;BME280;66373;52.334;4.806;2023-05-15T06:02:34;101465.06;;;21.36;49.72
77263;BME280;66373;52.334;4.806;2023-05-15T06:05:02;101465.91;;;21.36;49.65
77263;BME280;66373;52.334;4.806;2023-05-15T06:07:29;101454.59;;;21.36;49.86
77263;BME280;66373;52.334;4.806;2023-05-15T06:10:08;101420.25;;;21.12;49.93
77263;BME280;66373;52.334;4.806;2023-05-15T06:12:36;101423.75;;;21.11;49.91
77263;BME280;66373;52.334;4.806;2023-05-15T06:15:04;101457.31;;;21.31;50.05
77263;BME280;66373;52.334;4.806;2023-05-15T06:17:32;101462.47;;;21.34;49.96
77263;BME280;66373;52.334;4.806;2023-05-15T06:19:59;101461.59;;;21.33;49.78
77263;BME280;66373;52.334;4.806;2023-05-15T06:22:27;101454.75;;;21.29;49.97
77263;BME280;66373;52.334;4.806;2023-05-15T06:24:54;101456.38;;;21.33;49.44
77263;BME280;66373;52.334;4.806;2023-05-15T06:27:23;101444.38;;;21.26;49.76
77263;BME280;66373;52.334;4.806;2023-05-15T06:29:51;101464.19;;;21.35;49.74
77263;BME280;66373;52.334;4.806;2023-05-15T06:32:18;101458.09;;;21.34;49.72
77263;BME280;66373;52.334;4.806;2023-05-15T06:34:45;101459.81;;;21.36;50.05
77263;BME280;66373;52.334;4.806;2023-05-15T06:37:12;101462.44;;;21.36;49.79
77263;BME280;66373;52.334;4.806;2023-05-15T06:39:39;101456.31;;;21.37;49.72
77263;BME280;66373;52.334;4.806;2023-05-15T06:42:06;101447.63;;;21.34;49.89
77263;BME280;66373;52.334;4.806;2023-05-15T06:44:35;101464.13;;;21.38;49.80
77263;BME280;66373;52.334;4.806;2023-05-15T06:47:03;101421.94;;;21.15;49.58
77263;BME280;66373;52.334;4.806;2023-05-15T06:49:30;101457.13;;;21.39;49.97
77263;BME280;66373;52.334;4.806;2023-05-15T06:51:57;101404.63;;;21.09;49.71
77263;BME280;66373;52.334;4.806;2023-05-15T06:54:24;101451.94;;;21.37;49.81
77263;BME280;66373;52.334;4.806;2023-05-15T06:56:51;101438.16;;;21.30;49.56
77263;BME280;66373;52.334;4.806;2023-05-15T06:59:18;101439.75;;;21.36;50.17
77263;BME280;66373;52.334;4.806;2023-05-15T07:01:47;101448.38;;;21.40;49.80
77263;BME280;66373;52.334;4.806;2023-05-15T07:04:17;101452.75;;;21.39;50.03
77263;BME280;66373;52.334;4.806;2023-05-15T07:06:44;101448.38;;;21.40;49.66
77263;BME280;66373;52.334;4.806;2023-05-15T07:09:11;101459.75;;;21.39;49.96
77263;BME280;66373;52.334;4.806;2023-05-15T07:11:38;101445.06;;;21.33;49.81
77263;BME280;66373;52.334;4.806;2023-05-15T07:14:06;101421.06;;;21.14;50.21
77263;BME280;66373;52.334;4.806;2023-05-15T07:16:33;101450.25;;;21.34;49.97
77263;BME280;66373;52.334;4.806;2023-05-15T07:19:02;101462.34;;;21.39;50.00
77263;BME280;66373;52.334;4.806;2023-05-15T07:21:29;101459.94;;;21.31;49.90
77263;BME280;66373;52.334;4.806;2023-05-15T07:23:57;101458.88;;;21.38;49.73
77263;BME280;66373;52.334;4.806;2023-05-15T07:26:24;101471.09;;;21.38;49.90
77263;BME280;66373;52.334;4.806;2023-05-15T07:28:51;101467.59;;;21.39;50.12
77263;BME280;66373;52.334;4.806;2023-05-15T07:31:21;101469.34;;;21.38;50.00
77263;BME280;66373;52.334;4.806;2023-05-15T07:33:49;101459.88;;;21.32;49.96
77263;BME280;66373;52.334;4.806;2023-05-15T07:36:18;101468.50;;;21.38;49.84
77263;BME280;66373;52.334;4.806;2023-05-15T07:38:45;101463.25;;;21.38;49.88
77263;BME280;66373;52.334;4.806;2023-05-15T07:41:12;101464.16;;;21.37;49.48
77263;BME280;66373;52.334;4.806;2023-05-15T07:43:39;101446.97;;;21.26;49.72
77263;BME280;66373;52.334;4.806;2023-05-15T07:46:07;101461.53;;;21.37;49.63
77263;BME280;66373;52.334;4.806;2023-05-15T07:48:34;101439.28;;;21.20;49.68
77263;BME280;66373;52.334;4.806;2023-05-15T07:51:01;101439.13;;;21.26;49.53
77263;BME280;66373;52.334;4.806;2023-05-15T07:53:29;101446.97;;;21.26;49.95
77263;BME280;66373;52.334;4.806;2023-05-15T07:55:57;101465.88;;;21.38;49.92
77263;BME280;66373;52.334;4.806;2023-05-15T07:58:25;101426.34;;;21.13;49.98
77263;BME280;66373;52.334;4.806;2023-05-15T08:00:52;101458.28;;;21.28;49.81
77263;BME280;66373;52.334;4.806;2023-05-15T08:03:19;101460.69;;;21.36;49.71
77263;BME280;66373;52.334;4.806;2023-05-15T08:05:46;101463.28;;;21.36;49.67
77263;BME280;66373;52.334;4.806;2023-05-15T08:08:13;101456.38;;;21.33;49.67
77263;BME280;66373;52.334;4.806;2023-05-15T08:10:52;101435.81;;;21.18;49.70
77263;BME280;66373;52.334;4.806;2023-05-15T08:13:19;101465.06;;;21.36;50.01
77263;BME280;66373;52.334;4.806;2023-05-15T08:15:46;101477.25;;;21.37;49.90
77263;BME280;66373;52.334;4.806;2023-05-15T08:18:13;101459.13;;;21.29;50.05
77263;BME280;66373;52.334;4.806;2023-05-15T08:20:40;101466.16;;;21.27;49.95
77263;BME280;66373;52.334;4.806;2023-05-15T08:23:07;101444.69;;;21.11;50.13
77263;BME280;66373;52.334;4.806;2023-05-15T08:25:35;101486.00;;;21.36;50.03
77263;BME280;66373;52.334;4.806;2023-05-15T08:28:03;101472.19;;;21.30;49.89
77263;BME280;66373;52.334;4.806;2023-05-15T08:30:30;101486.00;;;21.36;50.01
77263;BME280;66373;52.334;4.806;2023-05-15T08:32:57;101480.75;;;21.36;49.57
77263;BME280;66373;52.334;4.806;2023-05-15T08:38:43;101460.09;;;21.25;49.78
77263;BME280;66373;52.334;4.806;2023-05-15T08:41:19;101479.03;;;21.34;50.00
77263;BME280;66373;52.334;4.806;2023-05-15T08:43:51;101484.25;;;21.34;49.78
77263;BME280;66373;52.334;4.806;2023-05-15T08:46:22;101479.94;;;21.33;49.82
77263;BME280;66373;52.334;4.806;2023-05-15T08:48:51;101475.69;;;21.29;50.00
77263;BME280;66373;52.334;4.806;2023-05-15T08:51:20;101477.31;;;21.33;49.56
77263;BME280;66373;52.334;4.806;2023-05-15T08:53:48;101457.59;;;21.19;50.00
77263;BME280;66373;52.334;4.806;2023-05-15T08:56:17;101483.41;;;21.34;50.12
77263;BME280;66373;52.334;4.806;2023-05-15T08:58:44;101480.78;;;21.34;49.77
77263;BME280;66373;52.334;4.806;2023-05-15T09:01:13;101479.97;;;21.32;50.02
77263;BME280;66373;52.334;4.806;2023-05-15T09:03:41;101486.06;;;21.32;50.00
77263;BME280;66373;52.334;4.806;2023-05-15T09:06:09;101443.91;;;21.08;49.65
77263;BME280;66373;52.334;4.806;2023-05-15T09:08:37;101472.13;;;21.32;49.71
77263;BME280;66373;52.334;4.806;2023-05-15T09:11:07;101457.59;;;21.19;49.92
77263;BME280;66373;52.334;4.806;2023-05-15T09:13:34;101480.06;;;21.29;49.99
77263;BME280;66373;52.334;4.806;2023-05-15T09:16:01;101479.09;;;21.31;49.80
77263;BME280;66373;52.334;4.806;2023-05-15T09:18:31;101486.06;;;21.32;49.53
77263;BME280;66373;52.334;4.806;2023-05-15T09:21:22;101491.28;;;21.32;49.28
77263;BME280;66373;52.334;4.806;2023-05-15T09:23:50;101483.69;;;21.23;49.27
77263;BME280;66373;52.334;4.806;2023-05-15T09:26:18;101492.19;;;21.31;49.25
77263;BME280;66373;52.334;4.806;2023-05-15T09:28:46;101489.72;;;21.27;49.91
77263;BME280;66373;52.334;4.806;2023-05-15T09:31:18;101493.13;;;21.30;49.78
77263;BME280;66373;52.334;4.806;2023-05-15T09:33:47;101495.66;;;21.32;49.60
77263;BME280;66373;52.334;4.806;2023-05-15T09:36:24;101492.19;;;21.31;49.24
77263;BME280;66373;52.334;4.806;2023-05-15T09:38:57;101494.81;;;21.31;49.44
77263;BME280;66373;52.334;4.806;2023-05-15T09:41:25;101497.41;;;21.31;49.59
77263;BME280;66373;52.334;4.806;2023-05-15T09:43:53;101493.13;;;21.30;49.51
77263;BME280;66373;52.334;4.806;2023-05-15T09:46:21;101493.13;;;21.30;49.93
77263;BME280;66373;52.334;4.806;2023-05-15T09:48:53;101451.72;;;21.09;49.93
77263;BME280;66373;52.334;4.806;2023-05-15T09:51:21;101493.13;;;21.30;49.73
77263;BME280;66373;52.334;4.806;2023-05-15T09:53:48;101493.13;;;21.30;49.63
77263;BME280;66373;52.334;4.806;2023-05-15T09:56:16;101494.88;;;21.30;49.89
77263;BME280;66373;52.334;4.806;2023-05-15T09:58:53;101467.19;;;21.18;49.80
77263;BME280;66373;52.334;4.806;2023-05-15T10:01:24;101491.41;;;21.29;49.85
77263;BME280;66373;52.334;4.806;2023-05-15T10:04:00;101486.16;;;21.29;49.93
77263;BME280;66373;52.334;4.806;2023-05-15T10:06:34;101475.06;;;21.18;49.82
77263;BME280;66373;52.334;4.806;2023-05-15T10:09:03;101480.13;;;21.26;49.78
77263;BME280;66373;52.334;4.806;2023-05-15T10:11:33;101484.44;;;21.28;49.48
77263;BME280;66373;52.334;4.806;2023-05-15T10:14:02;101482.78;;;21.24;49.73
77263;BME280;66373;52.334;4.806;2023-05-15T10:16:30;101471.56;;;21.18;49.67
77263;BME280;66373;52.334;4.806;2023-05-15T10:19:02;101493.19;;;21.27;49.30
77263;BME280;66373;52.334;4.806;2023-05-15T10:21:31;101486.22;;;21.26;49.67
77263;BME280;66373;52.334;4.806;2023-05-15T10:23:59;101458.75;;;21.07;49.53
77263;BME280;66373;52.334;4.806;2023-05-15T10:26:34;101493.19;;;21.27;49.21
77263;BME280;66373;52.334;4.806;2023-05-15T10:29:04;101485.47;;;21.20;49.39
77263;BME280;66373;52.334;4.806;2023-05-15T10:31:33;101477.66;;;21.18;49.39
77263;BME280;66373;52.334;4.806;2023-05-15T10:34:03;101496.63;;;21.29;49.30
77263;BME280;66373;52.334;4.806;2023-05-15T10:36:32;101487.88;;;21.30;49.46
77263;BME280;66373;52.334;4.806;2023-05-15T10:39:01;101484.34;;;21.31;49.46
77263;BME280;66373;52.334;4.806;2023-05-15T10:41:29;101470.53;;;21.26;49.31
77263;BME280;66373;52.334;4.806;2023-05-15T10:43:57;101487.78;;;21.33;49.52
77263;BME280;66373;52.334;4.806;2023-05-15T10:46:25;101477.41;;;21.30;49.21
77263;BME280;66373;52.334;4.806;2023-05-15T10:48:53;101468.88;;;21.22;49.42
77263;BME280;66373;52.334;4.806;2023-05-15T10:51:27;101487.72;;;21.37;49.49
77263;BME280;66373;52.334;4.806;2023-05-15T10:53:56;101483.22;;;21.42;49.60
77263;BME280;66373;52.334;4.806;2023-05-15T10:56:25;101479.69;;;21.44;49.62
77263;BME280;66373;52.334;4.806;2023-05-15T10:58:54;101451.25;;;21.30;49.83
77263;BME280;66373;52.334;4.806;2023-05-15T11:01:26;101459.75;;;21.39;49.55
77263;BME280;66373;52.334;4.806;2023-05-15T11:04:09;101482.03;;;21.55;49.61
77263;BME280;66373;52.334;4.806;2023-05-15T11:06:39;101444.03;;;21.39;49.52
77263;BME280;66373;52.334;4.806;2023-05-15T11:09:32;101472.28;;;21.60;49.38
77263;BME280;66373;52.334;4.806;2023-05-15T11:12:00;101435.38;;;21.37;49.83
77263;BME280;66373;52.334;4.806;2023-05-15T11:14:28;101412.00;;;21.30;49.66
77263;BME280;66373;52.334;4.806;2023-05-15T11:16:57;101452.44;;;21.51;49.54
77263;BME280;66373;52.334;4.806;2023-05-15T11:19:31;101462.63;;;21.62;49.45
77263;BME280;66373;52.334;4.806;2023-05-15T11:22:01;101464.13;;;21.72;49.34
77263;BME280;66373;52.334;4.806;2023-05-15T11:24:30;101476.31;;;21.73;49.34
77263;BME280;66373;52.334;4.806;2023-05-15T11:27:02;101481.47;;;21.76;49.50
77263;BME280;66373;52.334;4.806;2023-05-15T11:29:30;101483.19;;;21.77;49.09
77263;BME280;66373;52.334;4.806;2023-05-15T11:31:57;101481.47;;;21.76;49.59
77263;BME280;66373;52.334;4.806;2023-05-15T11:34:32;101486.66;;;21.78;49.54
77263;BME280;66373;52.334;4.806;2023-05-15T11:37:01;101485.81;;;21.77;49.54
77263;BME280;66373;52.334;4.806;2023-05-15T11:39:28;101481.53;;;21.73;49.51
77263;BME280;66373;52.334;4.806;2023-05-15T11:41:56;101478.03;;;21.74;49.40
77263;BME280;66373;52.334;4.806;2023-05-15T11:44:23;101383.56;;;21.15;49.21
77263;BME280;66373;52.334;4.806;2023-05-15T11:46:50;101477.94;;;21.77;49.34
77263;BME280;66373;52.334;4.806;2023-05-15T11:49:19;101477.25;;;21.71;49.45
77263;BME280;66373;52.334;4.806;2023-05-15T11:51:47;101489.25;;;21.79;49.40
77263;BME280;66373;52.334;4.806;2023-05-15T11:54:16;101483.16;;;21.79;49.31
77263;BME280;66373;52.334;4.806;2023-05-15T11:56:43;101476.38;;;21.70;49.56
77263;BME280;66373;52.334;4.806;2023-05-15T11:59:12;101467.78;;;21.65;49.56
77263;BME280;66373;52.334;4.806;2023-05-15T12:01:41;101438.56;;;21.48;49.22
77263;BME280;66373;52.334;4.806;2023-05-15T12:04:13;101475.56;;;21.68;49.44
77263;BME280;66373;52.334;4.806;2023-05-15T12:06:40;101388.78;;;21.15;49.39
77263;BME280;66373;52.334;4.806;2023-05-15T12:09:12;101492.75;;;21.78;49.44
77263;BME280;66373;52.334;4.806;2023-05-15T12:11:47;101484.97;;;21.75;49.60
77263;BME280;66373;52.334;4.806;2023-05-15T12:14:14;101473.03;;;21.65;49.60
77263;BME280;66373;52.334;4.806;2023-05-15T12:16:41;101489.28;;;21.78;49.42
77263;BME280;66373;52.334;4.806;2023-05-15T12:19:08;101494.56;;;21.76;49.24
77263;BME280;66373;52.334;4.806;2023-05-15T12:21:36;101447.34;;;21.47;49.12
77263;BME280;66373;52.334;4.806;2023-05-15T12:24:10;101490.38;;;21.69;49.55
77263;BME280;66373;52.334;4.806;2023-05-15T12:26:38;101444.75;;;21.45;49.03
77263;BME280;66373;52.334;4.806;2023-05-15T12:29:07;101497.19;;;21.76;49.41
77263;BME280;66373;52.334;4.806;2023-05-15T12:31:34;101434.47;;;21.38;49.14
77263;BME280;66373;52.334;4.806;2023-05-15T12:34:03;101473.16;;;21.59;49.45
77263;BME280;66373;52.334;4.806;2023-05-15T12:36:30;101505.03;;;21.76;49.38
77263;BME280;66373;52.334;4.806;2023-05-15T12:39:04;101442.16;;;21.44;49.54
77263;BME280;66373;52.334;4.806;2023-05-15T12:41:32;101487.88;;;21.64;49.48
77263;BME280;66373;52.334;4.806;2023-05-15T12:43:59;101503.34;;;21.74;49.50
77263;BME280;66373;52.334;4.806;2023-05-15T12:46:30;101496.53;;;21.66;49.30
77263;BME280;66373;52.334;4.806;2023-05-15T12:48:57;101505.94;;;21.75;49.21
77263;BME280;66373;52.334;4.806;2023-05-15T12:51:24;101503.41;;;21.72;49.02
77263;BME280;66373;52.334;4.806;2023-05-15T12:53:52;101500.69;;;21.75;49.49
77263;BME280;66373;52.334;4.806;2023-05-15T12:56:21;101487.88;;;21.64;49.14
77263;BME280;66373;52.334;4.806;2023-05-15T12:58:49;101497.41;;;21.67;49.30
77263;BME280;66373;52.334;4.806;2023-05-15T13:01:20;101509.50;;;21.73;49.42
77263;BME280;66373;52.334;4.806;2023-05-15T13:03:49;101511.16;;;21.75;49.42